sensor_id;sensor_type;location;lat;lon;timestamp;temperature;humidity
3758;DHT22;1894;51.038;13.692;2023-04-24T00:01:35;11.50;99.90
3758;DHT22;1894;51.038;13.692;2023-04-24T00:04:03;11.60;99.90
3758;DHT22;1894;51.038;13.692;2023-04-24T00:06:31;11.60;99.90
3758;DHT22;1894;51.038;13.692;2023-04-24T00:09:00;11.70;99.90
3758;DHT22;1894;51.038;13.692;2023-04-24T00:11:29;11.80;99.90
3758;DHT22;1894;51.038;13.692;2023-04-24T00:13:56;11.80;99.90
3758;DHT22;1894;51.038;13.692;2023-04-24T00:16:24;11.90;99.90
3758;DHT22;1894;51.038;13.692;2023-04-24T00:18:51;11.90;99.90
3758;DHT22;1894;51.038;13.692;2023-04-24T00:21:19;11.90;99.90
3758;DHT22;1894;51.038;13.692;2023-04-24T00:23:47;11.90;99.90
3758;DHT22;1894;51.038;13.692;2023-04-24T00:26:14;11.90;99.90
3758;DHT22;1894;51.038;13.692;2023-04-24T00:28:42;11.90;99.90
3758;DHT22;1894;51.038;13.692;2023-04-24T00:31:09;12.00;99.90
3758;DHT22;1894;51.038;13.692;2023-04-24T00:33:36;12.00;99.90
3758;DHT22;1894;51.038;13.692;2023-04-24T00:36:04;12.00;99.90
3758;DHT22;1894;51.038;13.692;2023-04-24T00:38:31;12.00;99.90
3758;DHT22;1894;51.038;13.692;2023-04-24T00:40:58;12.10;99.90
3758;DHT22;1894;51.038;13.692;2023-04-24T00:43:26;12.10;99.90
3758;DHT22;1894;51.038;13.692;2023-04-24T00:45:54;12.10;99.90
3758;DHT22;1894;51.038;13.692;2023-04-24T00:48:21;12.20;99.90
3758;DHT22;1894;51.038;13.692;2023-04-24T00:50:50;12.20;99.90
3758;DHT22;1894;51.038;13.692;2023-04-24T00:53:17;12.20;99.90
3758;DHT22;1894;51.038;13.692;2023-04-24T00:55:44;12.20;99.90
3758;DHT22;1894;51.038;13.692;2023-04-24T00:58:12;12.10;99.90
3758;DHT22;1894;51.038;13.692;2023-04-24T01:00:39;12.10;99.90
3758;DHT22;1894;51.038;13.692;2023-04-24T01:03:07;12.20;99.90
3758;DHT22;1894;51.038;13.692;2023-04-24T01:05:36;12.10;99.90
3758;DHT22;1894;51.038;13.692;2023-04-24T01:08:03;12.10;99.90
3758;DHT22;1894;51.038;13.692;2023-04-24T01:10:31;11.90;99.90
3758;DHT22;1894;51.038;13.692;2023-04-24T01:13:00;11.90;99.90
3758;DHT22;1894;51.038;13.692;2023-04-24T01:15:27;11.80;99.90
3758;DHT22;1894;51.038;13.692;2023-04-24T01:17:54;11.80;99.90
3758;DHT22;1894;51.038;13.692;2023-04-24T01:20:21;11.90;99.90
3758;DHT22;1894;51.038;13.692;2023-04-24T01:22:49;11.90;99.90
3758;DHT22;1894;51.038;13.692;2023-04-24T01:25:16;11.90;99.90
3758;DHT22;1894;51.038;13.692;2023-04-24T01:27:44;11.80;99.90
3758;DHT22;1894;51.038;13.692;2023-04-24T01:30:12;11.60;99.90
3758;DHT22;1894;51.038;13.692;2023-04-24T01:32:40;11.60;99.90
3758;DHT22;1894;51.038;13.692;2023-04-24T01:35:11;11.60;99.90
3758;DHT22;1894;51.038;13.692;2023-04-24T01:37:38;11.60;99.90
3758;DHT22;1894;51.038;13.692;2023-04-24T01:40:06;11.60;99.90
3758;DHT22;1894;51.038;13.692;2023-04-24T01:42:34;11.60;99.90
3758;DHT22;1894;51.038;13.692;2023-04-24T01:45:03;11.70;99.90
3758;DHT22;1894;51.038;13.692;2023-04-24T01:47:33;11.70;99.90
3758;DHT22;1894;51.038;13.692;2023-04-24T01:50:00;11.70;99.90
3758;DHT22;1894;51.038;13.692;2023-04-24T01:52:27;11.80;99.90
3758;DHT22;1894;51.038;13.692;2023-04-24T01:55:00;11.90;99.90
3758;DHT22;1894;51.038;13.692;2023-04-24T01:57:27;11.90;99.90
3758;DHT22;1894;51.038;13.692;2023-04-24T01:59:57;11.90;99.90
3758;DHT22;1894;51.038;13.692;2023-04-24T02:02:24;12.00;99.90
3758;DHT22;1894;51.038;13.692;2023-04-24T02:04:56;12.10;99.90
3758;DHT22;1894;51.038;13.692;2023-04-24T02:07:23;12.10;99.90
3758;DHT22;1894;51.038;13.692;2023-04-24T02:09:51;12.20;99.90
3758;DHT22;1894;51.038;13.692;2023-04-24T02:12:18;12.20;99.90
3758;DHT22;1894;51.038;13.692;2023-04-24T02:14:46;12.20;99.90
3758;DHT22;1894;51.038;13.692;2023-04-24T02:17:13;12.30;99.90
3758;DHT22;1894;51.038;13.692;2023-04-24T02:19:42;12.30;99.90
3758;DHT22;1894;51.038;13.692;2023-04-24T02:22:09;12.40;99.90
3758;DHT22;1894;51.038;13.692;2023-04-24T02:24:38;12.40;99.90
3758;DHT22;1894;51.038;13.692;2023-04-24T02:27:06;12.40;99.90
3758;DHT22;1894;51.038;13.692;2023-04-24T02:29:33;12.40;99.90
3758;DHT22;1894;51.038;13.692;2023-04-24T02:32:00;12.40;99.90
3758;DHT22;1894;51.038;13.692;2023-04-24T02:34:27;12.40;99.90
3758;DHT22;1894;51.038;13.692;2023-04-24T02:36:55;12.30;99.90
3758;DHT22;1894;51.038;13.692;2023-04-24T02:39:22;12.40;99.90
3758;DHT22;1894;51.038;13.692;2023-04-24T02:41:49;12.30;99.90
3758;DHT22;1894;51.038;13.692;2023-04-24T02:44:16;12.40;99.90
3758;DHT22;1894;51.038;13.692;2023-04-24T02:46:44;12.30;99.90
3758;DHT22;1894;51.038;13.692;2023-04-24T02:49:11;12.20;99.90
3758;DHT22;1894;51.038;13.692;2023-04-24T02:51:38;12.20;99.90
3758;DHT22;1894;51.038;13.692;2023-04-24T02:54:08;12.00;99.90
3758;DHT22;1894;51.038;13.692;2023-04-24T02:56:37;11.90;99.90
3758;DHT22;1894;51.038;13.692;2023-04-24T02:59:06;11.80;99.90
3758;DHT22;1894;51.038;13.692;2023-04-24T03:01:33;11.90;99.90
3758;DHT22;1894;51.038;13.692;2023-04-24T03:04:01;11.90;99.90
3758;DHT22;1894;51.038;13.692;2023-04-24T03:06:28;11.90;99.90
3758;DHT22;1894;51.038;13.692;2023-04-24T03:08:58;11.90;99.90
3758;DHT22;1894;51.038;13.692;2023-04-24T03:11:25;11.90;99.90
3758;DHT22;1894;51.038;13.692;2023-04-24T03:13:52;11.90;99.90
3758;DHT22;1894;51.038;13.692;2023-04-24T03:16:19;11.90;99.90
3758;DHT22;1894;51.038;13.692;2023-04-24T03:18:46;12.00;99.90
3758;DHT22;1894;51.038;13.692;2023-04-24T03:21:14;12.00;99.90
3758;DHT22;1894;51.038;13.692;2023-04-24T03:23:42;12.10;99.90
3758;DHT22;1894;51.038;13.692;2023-04-24T03:26:09;12.10;99.90
3758;DHT22;1894;51.038;13.692;2023-04-24T03:28:43;12.10;99.90
3758;DHT22;1894;51.038;13.692;2023-04-24T03:31:11;12.10;99.90
3758;DHT22;1894;51.038;13.692;2023-04-24T03:33:38;12.00;99.90
3758;DHT22;1894;51.038;13.692;2023-04-24T03:36:06;12.00;99.90
3758;DHT22;1894;51.038;13.692;2023-04-24T03:38:38;11.90;99.90
3758;DHT22;1894;51.038;13.692;2023-04-24T03:41:37;11.90;99.90
3758;DHT22;1894;51.038;13.692;2023-04-24T03:44:11;12.10;99.90
3758;DHT22;1894;51.038;13.692;2023-04-24T03:46:39;12.20;99.90
3758;DHT22;1894;51.038;13.692;2023-04-24T03:49:07;12.40;99.90
3758;DHT22;1894;51.038;13.692;2023-04-24T03:51:38;12.70;99.90
3758;DHT22;1894;51.038;13.692;2023-04-24T03:54:17;12.80;99.90
3758;DHT22;1894;51.038;13.692;2023-04-24T03:56:45;12.80;99.90
3758;DHT22;1894;51.038;13.692;2023-04-24T03:59:13;12.90;99.90
3758;DHT22;1894;51.038;13.692;2023-04-24T04:01:43;12.90;99.90
3758;DHT22;1894;51.038;13.692;2023-04-24T04:04:13;12.90;99.90
3758;DHT22;1894;51.038;13.692;2023-04-24T04:06:43;12.80;99.90
3758;DHT22;1894;51.038;13.692;2023-04-24T04:09:11;12.80;99.90
3758;DHT22;1894;51.038;13.692;2023-04-24T04:11:39;12.90;99.90
3758;DHT22;1894;51.038;13.692;2023-04-24T04:14:06;13.00;99.90
3758;DHT22;1894;51.038;13.692;2023-04-24T04:16:37;13.00;99.90
3758;DHT22;1894;51.038;13.692;2023-04-24T04:19:06;13.00;99.90
3758;DHT22;1894;51.038;13.692;2023-04-24T04:21:34;13.00;99.90
3758;DHT22;1894;51.038;13.692;2023-04-24T04:24:23;13.00;99.90
3758;DHT22;1894;51.038;13.692;2023-04-24T04:26:51;12.90;99.90
3758;DHT22;1894;51.038;13.692;2023-04-24T04:29:26;13.00;99.90
3758;DHT22;1894;51.038;13.692;2023-04-24T04:31:53;12.90;99.90
3758;DHT22;1894;51.038;13.692;2023-04-24T04:34:22;12.90;99.90
3758;DHT22;1894;51.038;13.692;2023-04-24T04:36:50;13.00;99.90
3758;DHT22;1894;51.038;13.692;2023-04-24T04:39:44;13.00;99.90
3758;DHT22;1894;51.038;13.692;2023-04-24T04:42:20;13.00;99.90
3758;DHT22;1894;51.038;13.692;2023-04-24T04:44:49;13.10;99.90
3758;DHT22;1894;51.038;13.692;2023-04-24T04:47:21;13.10;99.90
3758;DHT22;1894;51.038;13.692;2023-04-24T04:49:53;13.10;99.90
3758;DHT22;1894;51.038;13.692;2023-04-24T04:52:23;13.10;99.90
3758;DHT22;1894;51.038;13.692;2023-04-24T04:55:00;13.20;99.90
3758;DHT22;1894;51.038;13.692;2023-04-24T04:57:47;13.30;99.90
3758;DHT22;1894;51.038;13.692;2023-04-24T05:00:15;13.20;99.90
3758;DHT22;1894;51.038;13.692;2023-04-24T05:02:49;13.50;99.90
3758;DHT22;1894;51.038;13.692;2023-04-24T05:05:17;13.50;99.90
3758;DHT22;1894;51.038;13.692;2023-04-24T05:07:45;13.40;99.90
3758;DHT22;1894;51.038;13.692;2023-04-24T05:10:12;13.60;99.90
3758;DHT22;1894;51.038;13.692;2023-04-24T05:12:39;13.70;99.90
3758;DHT22;1894;51.038;13.692;2023-04-24T05:15:07;13.70;99.90
3758;DHT22;1894;51.038;13.692;2023-04-24T05:17:34;13.70;99.90
3758;DHT22;1894;51.038;13.692;2023-04-24T05:20:03;13.80;99.90
3758;DHT22;1894;51.038;13.692;2023-04-24T05:22:32;13.90;99.90
3758;DHT22;1894;51.038;13.692;2023-04-24T05:24:59;13.80;99.90
3758;DHT22;1894;51.038;13.692;2023-04-24T05:27:40;13.70;99.90
3758;DHT22;1894;51.038;13.692;2023-04-24T05:30:13;13.80;99.90
3758;DHT22;1894;51.038;13.692;2023-04-24T05:32:41;13.80;99.90
3758;DHT22;1894;51.038;13.692;2023-04-24T05:35:08;13.90;99.90
3758;DHT22;1894;51.038;13.692;2023-04-24T05:37:36;14.00;99.90
3758;DHT22;1894;51.038;13.692;2023-04-24T05:40:04;14.10;99.90
3758;DHT22;1894;51.038;13.692;2023-04-24T05:42:32;14.20;99.90
3758;DHT22;1894;51.038;13.692;2023-04-24T05:44:59;14.20;99.90
3758;DHT22;1894;51.038;13.692;2023-04-24T05:47:26;14.20;99.90
3758;DHT22;1894;51.038;13.692;2023-04-24T05:49:54;14.30;99.90
3758;DHT22;1894;51.038;13.692;2023-04-24T05:52:21;14.40;99.90
3758;DHT22;1894;51.038;13.692;2023-04-24T05:54:50;14.30;99.90
3758;DHT22;1894;51.038;13.692;2023-04-24T05:57:22;14.40;99.90
3758;DHT22;1894;51.038;13.692;2023-04-24T05:59:56;14.60;99.90
3758;DHT22;1894;51.038;13.692;2023-04-24T06:02:24;14.60;99.90
3758;DHT22;1894;51.038;13.692;2023-04-24T06:04:52;14.50;99.90
3758;DHT22;1894;51.038;13.692;2023-04-24T06:07:19;14.50;99.90
3758;DHT22;1894;51.038;13.692;2023-04-24T06:09:47;14.70;99.90
3758;DHT22;1894;51.038;13.692;2023-04-24T06:12:15;14.70;99.90
3758;DHT22;1894;51.038;13.692;2023-04-24T06:15:03;14.60;99.90
3758;DHT22;1894;51.038;13.692;2023-04-24T06:18:05;14.70;99.90
3758;DHT22;1894;51.038;13.692;2023-04-24T06:20:33;14.70;99.90
3758;DHT22;1894;51.038;13.692;2023-04-24T06:23:01;14.70;99.90
3758;DHT22;1894;51.038;13.692;2023-04-24T06:25:28;14.70;99.90
3758;DHT22;1894;51.038;13.692;2023-04-24T06:27:56;14.80;99.90
3758;DHT22;1894;51.038;13.692;2023-04-24T06:30:23;14.60;99.90
3758;DHT22;1894;51.038;13.692;2023-04-24T06:32:51;14.60;99.90
3758;DHT22;1894;51.038;13.692;2023-04-24T06:35:18;14.70;99.90
3758;DHT22;1894;51.038;13.692;2023-04-24T06:37:46;15.00;99.90
3758;DHT22;1894;51.038;13.692;2023-04-24T06:40:13;14.90;99.90
3758;DHT22;1894;51.038;13.692;2023-04-24T06:42:40;15.00;99.90
3758;DHT22;1894;51.038;13.692;2023-04-24T06:45:08;15.20;99.90
3758;DHT22;1894;51.038;13.692;2023-04-24T06:47:35;15.20;99.90
3758;DHT22;1894;51.038;13.692;2023-04-24T06:50:03;15.40;99.90
3758;DHT22;1894;51.038;13.692;2023-04-24T06:52:30;15.60;99.90
3758;DHT22;1894;51.038;13.692;2023-04-24T06:55:01;15.70;99.90
3758;DHT22;1894;51.038;13.692;2023-04-24T06:57:29;15.90;99.90
3758;DHT22;1894;51.038;13.692;2023-04-24T06:59:57;15.90;99.90
3758;DHT22;1894;51.038;13.692;2023-04-24T07:02:24;16.10;99.90
3758;DHT22;1894;51.038;13.692;2023-04-24T07:04:52;16.10;99.90
3758;DHT22;1894;51.038;13.692;2023-04-24T07:07:20;16.00;99.90
3758;DHT22;1894;51.038;13.692;2023-04-24T07:09:51;15.80;99.90
3758;DHT22;1894;51.038;13.692;2023-04-24T07:12:18;15.70;99.90
3758;DHT22;1894;51.038;13.692;2023-04-24T07:14:47;15.30;99.90
3758;DHT22;1894;51.038;13.692;2023-04-24T07:17:14;15.10;99.90
3758;DHT22;1894;51.038;13.692;2023-04-24T07:19:42;15.20;99.90
3758;DHT22;1894;51.038;13.692;2023-04-24T07:22:10;15.40;99.90
3758;DHT22;1894;51.038;13.692;2023-04-24T07:24:44;15.20;99.90
3758;DHT22;1894;51.038;13.692;2023-04-24T07:27:11;15.30;99.90
3758;DHT22;1894;51.038;13.692;2023-04-24T07:29:39;15.40;99.90
3758;DHT22;1894;51.038;13.692;2023-04-24T07:32:07;15.50;99.90
3758;DHT22;1894;51.038;13.692;2023-04-24T07:34:35;15.70;99.90
3758;DHT22;1894;51.038;13.692;2023-04-24T07:37:04;15.90;99.90
3758;DHT22;1894;51.038;13.692;2023-04-24T07:39:32;15.70;99.90
3758;DHT22;1894;51.038;13.692;2023-04-24T07:41:59;16.00;99.90
3758;DHT22;1894;51.038;13.692;2023-04-24T07:44:26;16.20;99.90
3758;DHT22;1894;51.038;13.692;2023-04-24T07:46:53;16.60;99.90
3758;DHT22;1894;51.038;13.692;2023-04-24T07:49:21;15.90;99.90
3758;DHT22;1894;51.038;13.692;2023-04-24T07:51:49;15.70;99.90
3758;DHT22;1894;51.038;13.692;2023-04-24T07:54:16;15.70;99.90
3758;DHT22;1894;51.038;13.692;2023-04-24T07:56:44;15.60;99.90
3758;DHT22;1894;51.038;13.692;2023-04-24T07:59:11;15.90;99.90
3758;DHT22;1894;51.038;13.692;2023-04-24T08:01:39;16.20;99.90
3758;DHT22;1894;51.038;13.692;2023-04-24T08:04:06;16.50;99.90
3758;DHT22;1894;51.038;13.692;2023-04-24T08:06:33;16.80;99.90
3758;DHT22;1894;51.038;13.692;2023-04-24T08:09:01;17.10;99.90
3758;DHT22;1894;51.038;13.692;2023-04-24T08:11:28;16.30;99.90
3758;DHT22;1894;51.038;13.692;2023-04-24T08:13:55;16.80;99.90
3758;DHT22;1894;51.038;13.692;2023-04-24T08:16:22;17.40;99.90
3758;DHT22;1894;51.038;13.692;2023-04-24T08:18:53;17.60;99.90
3758;DHT22;1894;51.038;13.692;2023-04-24T08:21:20;17.30;99.90
3758;DHT22;1894;51.038;13.692;2023-04-24T08:23:48;16.70;99.90
3758;DHT22;1894;51.038;13.692;2023-04-24T08:26:15;16.90;99.90
3758;DHT22;1894;51.038;13.692;2023-04-24T08:28:42;16.90;99.90
3758;DHT22;1894;51.038;13.692;2023-04-24T08:31:09;16.60;99.90
3758;DHT22;1894;51.038;13.692;2023-04-24T08:33:36;16.50;99.90
3758;DHT22;1894;51.038;13.692;2023-04-24T08:36:05;16.50;99.90
3758;DHT22;1894;51.038;13.692;2023-04-24T08:38:33;16.50;99.90
3758;DHT22;1894;51.038;13.692;2023-04-24T08:41:01;16.60;99.90
3758;DHT22;1894;51.038;13.692;2023-04-24T08:43:28;16.50;99.90
3758;DHT22;1894;51.038;13.692;2023-04-24T08:45:57;16.30;99.90
3758;DHT22;1894;51.038;13.692;2023-04-24T08:48:25;16.30;99.90
3758;DHT22;1894;51.038;13.692;2023-04-24T08:50:58;16.00;99.90
3758;DHT22;1894;51.038;13.692;2023-04-24T08:53:26;15.90;99.90
3758;DHT22;1894;51.038;13.692;2023-04-24T08:55:55;16.20;99.90
3758;DHT22;1894;51.038;13.692;2023-04-24T08:58:25;16.50;99.90
3758;DHT22;1894;51.038;13.692;2023-04-24T09:00:55;16.90;99.90
3758;DHT22;1894;51.038;13.692;2023-04-24T09:03:22;16.50;99.50
3758;DHT22;1894;51.038;13.692;2023-04-24T09:05:50;16.60;98.60
3758;DHT22;1894;51.038;13.692;2023-04-24T09:08:24;16.80;97.90
3758;DHT22;1894;51.038;13.692;2023-04-24T09:10:52;17.20;97.40
3758;DHT22;1894;51.038;13.692;2023-04-24T09:13:20;17.50;96.70
3758;DHT22;1894;51.038;13.692;2023-04-24T09:15:47;17.80;96.50
3758;DHT22;1894;51.038;13.692;2023-04-24T09:18:14;17.10;97.40
3758;DHT22;1894;51.038;13.692;2023-04-24T09:20:59;17.40;96.40
3758;DHT22;1894;51.038;13.692;2023-04-24T09:23:30;17.70;96.00
3758;DHT22;1894;51.038;13.692;2023-04-24T09:26:00;18.00;96.30
3758;DHT22;1894;51.038;13.692;2023-04-24T09:31:11;18.10;96.20
3758;DHT22;1894;51.038;13.692;2023-04-24T09:34:00;17.40;96.50
3758;DHT22;1894;51.038;13.692;2023-04-24T09:36:37;17.50;95.80
3758;DHT22;1894;51.038;13.692;2023-04-24T09:39:08;17.60;95.70
3758;DHT22;1894;51.038;13.692;2023-04-24T09:41:53;17.60;96.10
3758;DHT22;1894;51.038;13.692;2023-04-24T09:44:22;17.30;96.00
3758;DHT22;1894;51.038;13.692;2023-04-24T09:46:55;17.80;95.80
3758;DHT22;1894;51.038;13.692;2023-04-24T09:49:24;17.90;95.20
3758;DHT22;1894;51.038;13.692;2023-04-24T09:52:09;17.60;95.10
3758;DHT22;1894;51.038;13.692;2023-04-24T09:54:38;17.50;95.60
3758;DHT22;1894;51.038;13.692;2023-04-24T09:57:08;17.80;94.80
3758;DHT22;1894;51.038;13.692;2023-04-24T09:59:42;17.60;94.50
3758;DHT22;1894;51.038;13.692;2023-04-24T10:02:20;17.50;94.50
3758;DHT22;1894;51.038;13.692;2023-04-24T10:04:55;17.30;93.90
3758;DHT22;1894;51.038;13.692;2023-04-24T10:07:27;16.90;94.40
3758;DHT22;1894;51.038;13.692;2023-04-24T10:09:54;17.10;94.20
3758;DHT22;1894;51.038;13.692;2023-04-24T10:12:23;17.20;94.40
3758;DHT22;1894;51.038;13.692;2023-04-24T10:14:50;17.60;94.10
3758;DHT22;1894;51.038;13.692;2023-04-24T10:17:18;17.50;93.30
3758;DHT22;1894;51.038;13.692;2023-04-24T10:19:48;17.60;94.40
3758;DHT22;1894;51.038;13.692;2023-04-24T10:22:15;17.80;93.60
3758;DHT22;1894;51.038;13.692;2023-04-24T10:24:45;17.60;93.40
3758;DHT22;1894;51.038;13.692;2023-04-24T10:27:14;18.10;92.70
3758;DHT22;1894;51.038;13.692;2023-04-24T10:29:43;18.70;92.30
3758;DHT22;1894;51.038;13.692;2023-04-24T10:32:11;19.30;91.20
3758;DHT22;1894;51.038;13.692;2023-04-24T10:34:38;19.50;90.70
3758;DHT22;1894;51.038;13.692;2023-04-24T10:37:05;18.50;90.50
3758;DHT22;1894;51.038;13.692;2023-04-24T10:39:33;18.80;91.20
3758;DHT22;1894;51.038;13.692;2023-04-24T10:42:00;19.20;90.60
3758;DHT22;1894;51.038;13.692;2023-04-24T10:44:36;19.40;90.00
3758;DHT22;1894;51.038;13.692;2023-04-24T10:47:03;19.00;90.00
3758;DHT22;1894;51.038;13.692;2023-04-24T10:49:31;18.10;90.40
3758;DHT22;1894;51.038;13.692;2023-04-24T10:52:03;17.60;90.90
3758;DHT22;1894;51.038;13.692;2023-04-24T10:54:44;17.20;91.60
3758;DHT22;1894;51.038;13.692;2023-04-24T10:59:51;17.30;92.10
3758;DHT22;1894;51.038;13.692;2023-04-24T11:02:37;17.70;92.30
3758;DHT22;1894;51.038;13.692;2023-04-24T11:05:06;17.90;92.60
3758;DHT22;1894;51.038;13.692;2023-04-24T11:10:50;17.20;93.10
3758;DHT22;1894;51.038;13.692;2023-04-24T11:13:23;17.40;93.10
3758;DHT22;1894;51.038;13.692;2023-04-24T11:16:14;16.80;93.60
3758;DHT22;1894;51.038;13.692;2023-04-24T11:21:44;16.40;94.20
3758;DHT22;1894;51.038;13.692;2023-04-24T11:24:24;16.10;95.20
3758;DHT22;1894;51.038;13.692;2023-04-24T11:29:59;16.30;94.10
3758;DHT22;1894;51.038;13.692;2023-04-24T11:32:39;16.60;93.50
3758;DHT22;1894;51.038;13.692;2023-04-24T11:35:16;17.30;93.10
3758;DHT22;1894;51.038;13.692;2023-04-24T11:37:45;18.00;92.30
3758;DHT22;1894;51.038;13.692;2023-04-24T11:40:24;18.20;91.60
3758;DHT22;1894;51.038;13.692;2023-04-24T11:42:53;19.30;90.30
3758;DHT22;1894;51.038;13.692;2023-04-24T11:45:28;20.40;88.20
3758;DHT22;1894;51.038;13.692;2023-04-24T11:47:56;20.90;87.00
3758;DHT22;1894;51.038;13.692;2023-04-24T11:50:26;20.90;84.50
3758;DHT22;1894;51.038;13.692;2023-04-24T11:52:55;20.20;85.40
3758;DHT22;1894;51.038;13.692;2023-04-24T11:55:23;19.90;85.30
3758;DHT22;1894;51.038;13.692;2023-04-24T11:57:56;19.10;86.50
3758;DHT22;1894;51.038;13.692;2023-04-24T12:00:30;19.70;86.70
3758;DHT22;1894;51.038;13.692;2023-04-24T12:03:10;19.50;84.60
3758;DHT22;1894;51.038;13.692;2023-04-24T12:05:39;17.60;89.00
3758;DHT22;1894;51.038;13.692;2023-04-24T12:08:07;18.40;90.20
3758;DHT22;1894;51.038;13.692;2023-04-24T12:10:36;18.60;88.10
3758;DHT22;1894;51.038;13.692;2023-04-24T12:13:03;18.20;87.70
3758;DHT22;1894;51.038;13.692;2023-04-24T12:15:30;17.80;87.30
3758;DHT22;1894;51.038;13.692;2023-04-24T12:17:59;17.50;85.20
3758;DHT22;1894;51.038;13.692;2023-04-24T12:20:31;17.20;82.80
3758;DHT22;1894;51.038;13.692;2023-04-24T12:23:00;17.00;82.30
3758;DHT22;1894;51.038;13.692;2023-04-24T12:25:30;16.90;81.70
3758;DHT22;1894;51.038;13.692;2023-04-24T12:30:42;17.80;80.20
3758;DHT22;1894;51.038;13.692;2023-04-24T12:33:11;20.20;75.10
3758;DHT22;1894;51.038;13.692;2023-04-24T12:35:40;22.30;69.20
3758;DHT22;1894;51.038;13.692;2023-04-24T12:38:15;21.10;66.10
3758;DHT22;1894;51.038;13.692;2023-04-24T12:40:44;19.60;68.50
3758;DHT22;1894;51.038;13.692;2023-04-24T12:43:16;19.00;71.40
3758;DHT22;1894;51.038;13.692;2023-04-24T12:45:49;19.30;71.50
3758;DHT22;1894;51.038;13.692;2023-04-24T12:48:16;18.70;73.30
3758;DHT22;1894;51.038;13.692;2023-04-24T12:50:44;18.50;74.60
3758;DHT22;1894;51.038;13.692;2023-04-24T12:53:13;18.00;74.50
3758;DHT22;1894;51.038;13.692;2023-04-24T12:55:41;18.10;73.40
3758;DHT22;1894;51.038;13.692;2023-04-24T12:58:08;18.20;74.20
3758;DHT22;1894;51.038;13.692;2023-04-24T13:00:35;18.60;72.10
3758;DHT22;1894;51.038;13.692;2023-04-24T13:03:03;18.60;72.00
3758;DHT22;1894;51.038;13.692;2023-04-24T13:05:30;19.00;72.40
3758;DHT22;1894;51.038;13.692;2023-04-24T13:07:58;18.90;68.60
3758;DHT22;1894;51.038;13.692;2023-04-24T13:10:25;19.60;67.90
3758;DHT22;1894;51.038;13.692;2023-04-24T13:12:52;19.80;62.30
3758;DHT22;1894;51.038;13.692;2023-04-24T13:15:19;21.30;59.60
3758;DHT22;1894;51.038;13.692;2023-04-24T13:17:46;22.80;57.40
3758;DHT22;1894;51.038;13.692;2023-04-24T13:20:14;22.90;54.80
3758;DHT22;1894;51.038;13.692;2023-04-24T13:22:41;23.60;53.60
3758;DHT22;1894;51.038;13.692;2023-04-24T13:25:08;23.70;52.90
3758;DHT22;1894;51.038;13.692;2023-04-24T13:27:39;23.90;51.90
3758;DHT22;1894;51.038;13.692;2023-04-24T13:30:07;22.50;52.50
3758;DHT22;1894;51.038;13.692;2023-04-24T13:32:34;23.50;52.90
3758;DHT22;1894;51.038;13.692;2023-04-24T13:35:02;23.60;51.30
3758;DHT22;1894;51.038;13.692;2023-04-24T13:37:29;24.50;51.10
3758;DHT22;1894;51.038;13.692;2023-04-24T13:39:56;24.70;48.50
3758;DHT22;1894;51.038;13.692;2023-04-24T13:42:24;24.00;46.10
3758;DHT22;1894;51.038;13.692;2023-04-24T13:44:52;24.00;46.10
3758;DHT22;1894;51.038;13.692;2023-04-24T13:47:20;22.70;46.90
3758;DHT22;1894;51.038;13.692;2023-04-24T13:49:48;21.60;49.00
3758;DHT22;1894;51.038;13.692;2023-04-24T13:52:15;21.30;48.50
3758;DHT22;1894;51.038;13.692;2023-04-24T13:54:42;21.80;50.60
3758;DHT22;1894;51.038;13.692;2023-04-24T13:57:09;22.60;47.20
3758;DHT22;1894;51.038;13.692;2023-04-24T13:59:36;22.20;47.80
3758;DHT22;1894;51.038;13.692;2023-04-24T14:02:03;22.40;47.50
3758;DHT22;1894;51.038;13.692;2023-04-24T14:04:31;23.20;47.30
3758;DHT22;1894;51.038;13.692;2023-04-24T14:06:58;24.40;46.80
3758;DHT22;1894;51.038;13.692;2023-04-24T14:09:25;24.60;46.00
3758;DHT22;1894;51.038;13.692;2023-04-24T14:11:52;24.70;44.60
3758;DHT22;1894;51.038;13.692;2023-04-24T14:14:19;24.80;44.80
3758;DHT22;1894;51.038;13.692;2023-04-24T14:16:47;26.30;43.70
3758;DHT22;1894;51.038;13.692;2023-04-24T14:19:14;26.30;43.10
3758;DHT22;1894;51.038;13.692;2023-04-24T14:21:41;25.40;42.10
3758;DHT22;1894;51.038;13.692;2023-04-24T14:24:08;22.80;43.50
3758;DHT22;1894;51.038;13.692;2023-04-24T14:26:35;21.40;46.60
3758;DHT22;1894;51.038;13.692;2023-04-24T14:29:03;22.70;46.00
3758;DHT22;1894;51.038;13.692;2023-04-24T14:31:41;24.50;45.40
3758;DHT22;1894;51.038;13.692;2023-04-24T14:34:09;25.20;43.90
3758;DHT22;1894;51.038;13.692;2023-04-24T14:36:36;24.10;43.40
3758;DHT22;1894;51.038;13.692;2023-04-24T14:39:03;23.60;44.50
3758;DHT22;1894;51.038;13.692;2023-04-24T14:41:34;24.10;44.20
3758;DHT22;1894;51.038;13.692;2023-04-24T14:44:03;25.90;42.90
3758;DHT22;1894;51.038;13.692;2023-04-24T14:46:30;22.90;44.10
3758;DHT22;1894;51.038;13.692;2023-04-24T14:48:58;23.60;45.20
3758;DHT22;1894;51.038;13.692;2023-04-24T14:51:25;23.90;44.50
3758;DHT22;1894;51.038;13.692;2023-04-24T14:53:53;23.20;44.40
3758;DHT22;1894;51.038;13.692;2023-04-24T14:56:21;24.40;43.60
3758;DHT22;1894;51.038;13.692;2023-04-24T14:58:48;23.40;43.90
3758;DHT22;1894;51.038;13.692;2023-04-24T15:01:15;22.40;44.60
3758;DHT22;1894;51.038;13.692;2023-04-24T15:03:43;22.90;45.80
3758;DHT22;1894;51.038;13.692;2023-04-24T15:06:12;23.30;44.90
3758;DHT22;1894;51.038;13.692;2023-04-24T15:08:39;23.70;44.00
3758;DHT22;1894;51.038;13.692;2023-04-24T15:11:06;23.30;43.90
3758;DHT22;1894;51.038;13.692;2023-04-24T15:13:33;23.60;43.30
3758;DHT22;1894;51.038;13.692;2023-04-24T15:16:00;22.20;43.30
3758;DHT22;1894;51.038;13.692;2023-04-24T15:18:28;21.80;42.90
3758;DHT22;1894;51.038;13.692;2023-04-24T15:20:56;20.90;43.90
3758;DHT22;1894;51.038;13.692;2023-04-24T15:23:23;20.40;45.10
3758;DHT22;1894;51.038;13.692;2023-04-24T15:25:50;19.80;45.40
3758;DHT22;1894;51.038;13.692;2023-04-24T15:28:17;20.20;45.50
3758;DHT22;1894;51.038;13.692;2023-04-24T15:30:44;19.00;46.90
3758;DHT22;1894;51.038;13.692;2023-04-24T15:33:12;19.10;48.00
3758;DHT22;1894;51.038;13.692;2023-04-24T15:35:39;18.30;48.80
3758;DHT22;1894;51.038;13.692;2023-04-24T15:38:07;18.40;49.40
3758;DHT22;1894;51.038;13.692;2023-04-24T15:40:36;18.70;49.20
3758;DHT22;1894;51.038;13.692;2023-04-24T15:43:03;18.70;50.10
3758;DHT22;1894;51.038;13.692;2023-04-24T15:45:32;19.10;49.50
3758;DHT22;1894;51.038;13.692;2023-04-24T15:47:59;18.80;49.60
3758;DHT22;1894;51.038;13.692;2023-04-24T15:50:27;18.10;50.60
3758;DHT22;1894;51.038;13.692;2023-04-24T15:52:54;17.50;51.60
3758;DHT22;1894;51.038;13.692;2023-04-24T15:55:22;17.00;53.30
3758;DHT22;1894;51.038;13.692;2023-04-24T15:57:49;16.70;55.10
3758;DHT22;1894;51.038;13.692;2023-04-24T16:00:16;16.60;56.80
3758;DHT22;1894;51.038;13.692;2023-04-24T16:02:44;16.40;56.60
3758;DHT22;1894;51.038;13.692;2023-04-24T16:05:12;16.30;57.30
3758;DHT22;1894;51.038;13.692;2023-04-24T16:07:39;16.50;57.90
3758;DHT22;1894;51.038;13.692;2023-04-24T16:10:06;16.50;57.40
3758;DHT22;1894;51.038;13.692;2023-04-24T16:12:34;16.30;57.80
3758;DHT22;1894;51.038;13.692;2023-04-24T16:15:01;16.50;58.70